sensor_id;sensor_type;location;lat;lon;timestamp;P1;durP1;ratioP1;P2;durP2;ratioP2
53718;SDS011;39616;48.872;9.390;2023-04-21T00:00:58;21.00;;;11.00;;
53718;SDS011;39616;48.872;9.390;2023-04-21T00:03:29;20.75;;;10.95;;
53718;SDS011;39616;48.872;9.390;2023-04-21T00:06:03;21.48;;;11.73;;
53718;SDS011;39616;48.872;9.390;2023-04-21T00:08:38;20.35;;;10.93;;
53718;SDS011;39616;48.872;9.390;2023-04-21T00:11:09;19.45;;;10.43;;
53718;SDS011;39616;48.872;9.390;2023-04-21T00:13:39;20.92;;;10.18;;
53718;SDS011;39616;48.872;9.390;2023-04-21T00:16:10;21.85;;;10.98;;
53718;SDS011;39616;48.872;9.390;2023-04-21T00:18:40;20.25;;;11.50;;
53718;SDS011;39616;48.872;9.390;2023-04-21T00:21:11;23.15;;;11.93;;
53718;SDS011;39616;48.872;9.390;2023-04-21T00:23:41;21.58;;;11.00;;
53718;SDS011;39616;48.872;9.390;2023-04-21T00:26:11;25.00;;;13.40;;
53718;SDS011;39616;48.872;9.390;2023-04-21T00:28:42;25.73;;;14.20;;
53718;SDS011;39616;48.872;9.390;2023-04-21T00:31:12;32.97;;;15.23;;
53718;SDS011;39616;48.872;9.390;2023-04-21T00:33:42;28.95;;;14.90;;
53718;SDS011;39616;48.872;9.390;2023-04-21T00:36:12;32.38;;;15.57;;
53718;SDS011;39616;48.872;9.390;2023-04-21T00:38:43;29.15;;;15.15;;
53718;SDS011;39616;48.872;9.390;2023-04-21T00:41:13;28.23;;;14.45;;
53718;SDS011;39616;48.872;9.390;2023-04-21T00:46:49;28.33;;;14.02;;
53718;SDS011;39616;48.872;9.390;2023-04-21T00:49:21;26.55;;;13.57;;
53718;SDS011;39616;48.872;9.390;2023-04-21T00:51:53;21.73;;;11.90;;
53718;SDS011;39616;48.872;9.390;2023-04-21T00:54:23;23.92;;;11.77;;
53718;SDS011;39616;48.872;9.390;2023-04-21T00:56:55;23.92;;;12.13;;
53718;SDS011;39616;48.872;9.390;2023-04-21T00:59:27;26.48;;;13.32;;
53718;SDS011;39616;48.872;9.390;2023-04-21T01:01:57;23.77;;;11.95;;
53718;SDS011;39616;48.872;9.390;2023-04-21T01:04:28;30.42;;;15.15;;
53718;SDS011;39616;48.872;9.390;2023-04-21T01:07:04;33.83;;;14.90;;
53718;SDS011;39616;48.872;9.390;2023-04-21T01:09:36;30.30;;;15.30;;
53718;SDS011;39616;48.872;9.390;2023-04-21T01:12:07;40.10;;;16.92;;
53718;SDS011;39616;48.872;9.390;2023-04-21T01:14:39;37.05;;;17.23;;
53718;SDS011;39616;48.872;9.390;2023-04-21T01:17:10;33.72;;;16.10;;
53718;SDS011;39616;48.872;9.390;2023-04-21T01:19:41;32.33;;;15.63;;
53718;SDS011;39616;48.872;9.390;2023-04-21T01:22:12;30.10;;;15.50;;
53718;SDS011;39616;48.872;9.390;2023-04-21T01:24:45;30.20;;;15.52;;
53718;SDS011;39616;48.872;9.390;2023-04-21T01:27:17;37.88;;;16.15;;
53718;SDS011;39616;48.872;9.390;2023-04-21T01:29:49;32.80;;;15.65;;
53718;SDS011;39616;48.872;9.390;2023-04-21T01:32:22;34.63;;;15.70;;
53718;SDS011;39616;48.872;9.390;2023-04-21T01:34:54;30.10;;;15.40;;
53718;SDS011;39616;48.872;9.390;2023-04-21T01:37:27;32.03;;;16.17;;
53718;SDS011;39616;48.872;9.390;2023-04-21T01:40:00;34.45;;;16.08;;
53718;SDS011;39616;48.872;9.390;2023-04-21T01:42:35;29.75;;;15.18;;
53718;SDS011;39616;48.872;9.390;2023-04-21T01:45:08;32.38;;;15.70;;
53718;SDS011;39616;48.872;9.390;2023-04-21T01:47:39;29.08;;;14.10;;
53718;SDS011;39616;48.872;9.390;2023-04-21T01:50:09;28.77;;;14.30;;
53718;SDS011;39616;48.872;9.390;2023-04-21T01:52:40;30.63;;;13.82;;
53718;SDS011;39616;48.872;9.390;2023-04-21T01:55:11;29.73;;;14.55;;
53718;SDS011;39616;48.872;9.390;2023-04-21T01:57:41;29.80;;;13.70;;
53718;SDS011;39616;48.872;9.390;2023-04-21T02:00:11;28.73;;;13.88;;
53718;SDS011;39616;48.872;9.390;2023-04-21T02:02:42;32.55;;;14.98;;
53718;SDS011;39616;48.872;9.390;2023-04-21T02:05:12;35.03;;;14.98;;
53718;SDS011;39616;48.872;9.390;2023-04-21T02:07:43;31.83;;;14.95;;
53718;SDS011;39616;48.872;9.390;2023-04-21T02:10:13;31.40;;;14.70;;
53718;SDS011;39616;48.872;9.390;2023-04-21T02:12:44;30.02;;;13.23;;
53718;SDS011;39616;48.872;9.390;2023-04-21T02:15:14;25.35;;;12.63;;
53718;SDS011;39616;48.872;9.390;2023-04-21T02:17:45;28.63;;;13.95;;
53718;SDS011;39616;48.872;9.390;2023-04-21T02:20:15;25.73;;;12.45;;
53718;SDS011;39616;48.872;9.390;2023-04-21T02:22:46;25.05;;;11.90;;
53718;SDS011;39616;48.872;9.390;2023-04-21T02:25:16;23.23;;;11.65;;
53718;SDS011;39616;48.872;9.390;2023-04-21T02:27:46;20.35;;;11.25;;
53718;SDS011;39616;48.872;9.390;2023-04-21T02:30:16;24.02;;;11.32;;
53718;SDS011;39616;48.872;9.390;2023-04-21T02:32:47;24.92;;;11.65;;
53718;SDS011;39616;48.872;9.390;2023-04-21T02:35:17;24.15;;;11.00;;
53718;SDS011;39616;48.872;9.390;2023-04-21T02:37:47;24.83;;;12.38;;
53718;SDS011;39616;48.872;9.390;2023-04-21T02:40:18;24.20;;;11.77;;
53718;SDS011;39616;48.872;9.390;2023-04-21T02:42:48;25.20;;;12.65;;
53718;SDS011;39616;48.872;9.390;2023-04-21T02:45:18;22.05;;;11.10;;
53718;SDS011;39616;48.872;9.390;2023-04-21T02:47:49;25.20;;;11.88;;
53718;SDS011;39616;48.872;9.390;2023-04-21T02:50:19;27.40;;;12.88;;
53718;SDS011;39616;48.872;9.390;2023-04-21T02:52:49;26.15;;;13.30;;
53718;SDS011;39616;48.872;9.390;2023-04-21T02:55:20;27.23;;;13.88;;
53718;SDS011;39616;48.872;9.390;2023-04-21T02:57:51;23.88;;;11.80;;
53718;SDS011;39616;48.872;9.390;2023-04-21T03:00:21;22.48;;;11.15;;
53718;SDS011;39616;48.872;9.390;2023-04-21T03:02:52;19.45;;;9.73;;
53718;SDS011;39616;48.872;9.390;2023-04-21T03:05:22;17.13;;;9.43;;
53718;SDS011;39616;48.872;9.390;2023-04-21T03:07:52;17.80;;;9.55;;
53718;SDS011;39616;48.872;9.390;2023-04-21T03:10:23;19.98;;;9.95;;
53718;SDS011;39616;48.872;9.390;2023-04-21T03:12:53;19.90;;;10.30;;
53718;SDS011;39616;48.872;9.390;2023-04-21T03:15:25;16.52;;;9.38;;
53718;SDS011;39616;48.872;9.390;2023-04-21T03:17:55;17.45;;;9.55;;
53718;SDS011;39616;48.872;9.390;2023-04-21T03:20:25;22.73;;;11.07;;
53718;SDS011;39616;48.872;9.390;2023-04-21T03:22:56;21.98;;;10.15;;
53718;SDS011;39616;48.872;9.390;2023-04-21T03:25:26;20.92;;;10.68;;
53718;SDS011;39616;48.872;9.390;2023-04-21T03:27:57;18.45;;;9.10;;
53718;SDS011;39616;48.872;9.390;2023-04-21T03:30:27;20.90;;;10.77;;
53718;SDS011;39616;48.872;9.390;2023-04-21T03:32:57;19.00;;;9.55;;
53718;SDS011;39616;48.872;9.390;2023-04-21T03:35:28;19.92;;;10.63;;
53718;SDS011;39616;48.872;9.390;2023-04-21T03:37:59;23.67;;;11.25;;
53718;SDS011;39616;48.872;9.390;2023-04-21T03:40:29;19.10;;;10.20;;
53718;SDS011;39616;48.872;9.390;2023-04-21T03:43:00;19.40;;;9.88;;
53718;SDS011;39616;48.872;9.390;2023-04-21T03:45:30;19.65;;;10.88;;
53718;SDS011;39616;48.872;9.390;2023-04-21T03:48:01;19.98;;;10.30;;
53718;SDS011;39616;48.872;9.390;2023-04-21T03:50:32;19.92;;;9.45;;
53718;SDS011;39616;48.872;9.390;2023-04-21T03:53:02;23.00;;;10.95;;
53718;SDS011;39616;48.872;9.390;2023-04-21T03:55:33;24.25;;;11.90;;
53718;SDS011;39616;48.872;9.390;2023-04-21T03:58:03;23.95;;;10.98;;
53718;SDS011;39616;48.872;9.390;2023-04-21T04:00:33;23.92;;;10.68;;
53718;SDS011;39616;48.872;9.390;2023-04-21T04:03:04;24.58;;;11.90;;
53718;SDS011;39616;48.872;9.390;2023-04-21T04:05:34;24.65;;;12.32;;
53718;SDS011;39616;48.872;9.390;2023-04-21T04:08:05;24.67;;;11.38;;
53718;SDS011;39616;48.872;9.390;2023-04-21T04:10:36;25.27;;;11.80;;
53718;SDS011;39616;48.872;9.390;2023-04-21T04:13:06;21.42;;;11.10;;
53718;SDS011;39616;48.872;9.390;2023-04-21T04:15:36;22.88;;;10.77;;
53718;SDS011;39616;48.872;9.390;2023-04-21T04:18:07;20.73;;;10.43;;
53718;SDS011;39616;48.872;9.390;2023-04-21T04:20:37;22.17;;;10.82;;
53718;SDS011;39616;48.872;9.390;2023-04-21T04:23:07;21.85;;;10.55;;
53718;SDS011;39616;48.872;9.390;2023-04-21T04:25:38;24.50;;;10.55;;
53718;SDS011;39616;48.872;9.390;2023-04-21T04:28:09;21.52;;;10.35;;
53718;SDS011;39616;48.872;9.390;2023-04-21T04:30:39;25.55;;;13.27;;
53718;SDS011;39616;48.872;9.390;2023-04-21T04:33:10;25.55;;;12.30;;
53718;SDS011;39616;48.872;9.390;2023-04-21T04:35:40;20.10;;;10.02;;
53718;SDS011;39616;48.872;9.390;2023-04-21T04:38:10;22.95;;;10.15;;
53718;SDS011;39616;48.872;9.390;2023-04-21T04:40:43;19.63;;;10.65;;
53718;SDS011;39616;48.872;9.390;2023-04-21T04:43:14;22.55;;;11.05;;
53718;SDS011;39616;48.872;9.390;2023-04-21T04:45:45;52.05;;;20.13;;
53718;SDS011;39616;48.872;9.390;2023-04-21T04:48:16;65.45;;;26.00;;
53718;SDS011;39616;48.872;9.390;2023-04-21T04:50:46;35.80;;;16.40;;
53718;SDS011;39616;48.872;9.390;2023-04-21T04:53:17;25.60;;;12.23;;
53718;SDS011;39616;48.872;9.390;2023-04-21T04:55:47;75.43;;;32.78;;
53718;SDS011;39616;48.872;9.390;2023-04-21T04:58:17;34.92;;;17.08;;
53718;SDS011;39616;48.872;9.390;2023-04-21T05:00:47;33.47;;;16.10;;
53718;SDS011;39616;48.872;9.390;2023-04-21T05:03:18;33.97;;;15.88;;
53718;SDS011;39616;48.872;9.390;2023-04-21T05:05:48;33.08;;;15.75;;
53718;SDS011;39616;48.872;9.390;2023-04-21T05:08:18;32.17;;;14.93;;
53718;SDS011;39616;48.872;9.390;2023-04-21T05:10:49;33.63;;;16.73;;
53718;SDS011;39616;48.872;9.390;2023-04-21T05:13:21;46.90;;;20.63;;
53718;SDS011;39616;48.872;9.390;2023-04-21T05:15:56;33.03;;;16.17;;
53718;SDS011;39616;48.872;9.390;2023-04-21T05:18:27;26.65;;;12.73;;
53718;SDS011;39616;48.872;9.390;2023-04-21T05:20:58;28.05;;;13.38;;
53718;SDS011;39616;48.872;9.390;2023-04-21T05:23:28;27.75;;;12.55;;
53718;SDS011;39616;48.872;9.390;2023-04-21T05:25:59;26.48;;;12.90;;
53718;SDS011;39616;48.872;9.390;2023-04-21T05:28:29;23.95;;;12.10;;
53718;SDS011;39616;48.872;9.390;2023-04-21T05:31:00;23.35;;;12.15;;
53718;SDS011;39616;48.872;9.390;2023-04-21T05:33:31;26.98;;;12.48;;
53718;SDS011;39616;48.872;9.390;2023-04-21T05:36:01;27.63;;;13.88;;
53718;SDS011;39616;48.872;9.390;2023-04-21T05:38:36;27.50;;;13.25;;
53718;SDS011;39616;48.872;9.390;2023-04-21T05:41:07;27.80;;;13.32;;
53718;SDS011;39616;48.872;9.390;2023-04-21T05:43:37;27.40;;;12.90;;
53718;SDS011;39616;48.872;9.390;2023-04-21T05:46:08;30.38;;;14.02;;
53718;SDS011;39616;48.872;9.390;2023-04-21T05:48:39;30.67;;;13.50;;
53718;SDS011;39616;48.872;9.390;2023-04-21T05:51:11;29.42;;;13.25;;
53718;SDS011;39616;48.872;9.390;2023-04-21T05:53:43;25.98;;;13.45;;
53718;SDS011;39616;48.872;9.390;2023-04-21T05:56:14;24.95;;;13.38;;
53718;SDS011;39616;48.872;9.390;2023-04-21T05:58:44;27.13;;;13.32;;
53718;SDS011;39616;48.872;9.390;2023-04-21T06:01:14;26.90;;;14.05;;
53718;SDS011;39616;48.872;9.390;2023-04-21T06:03:45;26.60;;;13.98;;
53718;SDS011;39616;48.872;9.390;2023-04-21T06:06:17;26.48;;;12.43;;
53718;SDS011;39616;48.872;9.390;2023-04-21T06:08:48;21.40;;;11.70;;
53718;SDS011;39616;48.872;9.390;2023-04-21T06:11:18;23.77;;;11.93;;
53718;SDS011;39616;48.872;9.390;2023-04-21T06:13:49;22.85;;;12.32;;
53718;SDS011;39616;48.872;9.390;2023-04-21T06:16:19;24.70;;;12.30;;
53718;SDS011;39616;48.872;9.390;2023-04-21T06:18:50;26.63;;;12.93;;
53718;SDS011;39616;48.872;9.390;2023-04-21T06:21:20;24.83;;;12.80;;
53718;SDS011;39616;48.872;9.390;2023-04-21T06:23:50;25.65;;;13.65;;
53718;SDS011;39616;48.872;9.390;2023-04-21T06:26:20;25.98;;;12.68;;
53718;SDS011;39616;48.872;9.390;2023-04-21T06:28:51;26.65;;;13.57;;
53718;SDS011;39616;48.872;9.390;2023-04-21T06:31:21;25.02;;;13.82;;
53718;SDS011;39616;48.872;9.390;2023-04-21T06:33:51;24.73;;;13.52;;
53718;SDS011;39616;48.872;9.390;2023-04-21T06:36:22;24.40;;;13.25;;
53718;SDS011;39616;48.872;9.390;2023-04-21T06:38:52;26.30;;;13.73;;
53718;SDS011;39616;48.872;9.390;2023-04-21T06:41:22;22.50;;;13.20;;
53718;SDS011;39616;48.872;9.390;2023-04-21T06:43:53;22.98;;;12.88;;
53718;SDS011;39616;48.872;9.390;2023-04-21T06:46:23;21.13;;;11.60;;
53718;SDS011;39616;48.872;9.390;2023-04-21T06:48:53;22.45;;;12.23;;
53718;SDS011;39616;48.872;9.390;2023-04-21T06:51:24;23.42;;;13.73;;
53718;SDS011;39616;48.872;9.390;2023-04-21T06:53:54;23.25;;;13.60;;
53718;SDS011;39616;48.872;9.390;2023-04-21T06:56:28;22.70;;;13.05;;
53718;SDS011;39616;48.872;9.390;2023-04-21T06:58:58;22.00;;;12.38;;
53718;SDS011;39616;48.872;9.390;2023-04-21T07:01:29;23.88;;;12.48;;
53718;SDS011;39616;48.872;9.390;2023-04-21T07:04:01;22.98;;;11.98;;
53718;SDS011;39616;48.872;9.390;2023-04-21T07:06:33;28.20;;;11.45;;
53718;SDS011;39616;48.872;9.390;2023-04-21T07:09:03;30.73;;;12.38;;
53718;SDS011;39616;48.872;9.390;2023-04-21T07:11:34;22.00;;;11.43;;
53718;SDS011;39616;48.872;9.390;2023-04-21T07:14:05;17.95;;;11.20;;
53718;SDS011;39616;48.872;9.390;2023-04-21T07:16:35;18.85;;;11.45;;
53718;SDS011;39616;48.872;9.390;2023-04-21T07:19:05;18.83;;;11.23;;
53718;SDS011;39616;48.872;9.390;2023-04-21T07:21:36;18.52;;;11.02;;
53718;SDS011;39616;48.872;9.390;2023-04-21T07:24:06;19.15;;;10.40;;
53718;SDS011;39616;48.872;9.390;2023-04-21T07:26:37;18.50;;;10.98;;
53718;SDS011;39616;48.872;9.390;2023-04-21T07:29:07;15.80;;;10.00;;
53718;SDS011;39616;48.872;9.390;2023-04-21T07:31:37;16.60;;;9.98;;
53718;SDS011;39616;48.872;9.390;2023-04-21T07:34:08;14.73;;;9.70;;
53718;SDS011;39616;48.872;9.390;2023-04-21T07:36:38;16.50;;;10.13;;
53718;SDS011;39616;48.872;9.390;2023-04-21T07:39:08;14.73;;;8.55;;
53718;SDS011;39616;48.872;9.390;2023-04-21T07:41:38;13.48;;;8.70;;
53718;SDS011;39616;48.872;9.390;2023-04-21T07:44:09;16.67;;;9.02;;
53718;SDS011;39616;48.872;9.390;2023-04-21T07:46:39;17.13;;;10.75;;
53718;SDS011;39616;48.872;9.390;2023-04-21T07:49:10;18.10;;;10.00;;
53718;SDS011;39616;48.872;9.390;2023-04-21T07:51:40;14.70;;;9.85;;
53718;SDS011;39616;48.872;9.390;2023-04-21T07:54:10;13.57;;;8.80;;
53718;SDS011;39616;48.872;9.390;2023-04-21T07:56:41;15.77;;;8.90;;
53718;SDS011;39616;48.872;9.390;2023-04-21T07:59:11;13.95;;;9.05;;
53718;SDS011;39616;48.872;9.390;2023-04-21T08:01:41;15.70;;;8.95;;
53718;SDS011;39616;48.872;9.390;2023-04-21T08:04:12;18.27;;;9.27;;
53718;SDS011;39616;48.872;9.390;2023-04-21T08:06:42;16.52;;;8.50;;
53718;SDS011;39616;48.872;9.390;2023-04-21T08:09:12;13.55;;;8.60;;
53718;SDS011;39616;48.872;9.390;2023-04-21T08:11:42;12.50;;;8.23;;
53718;SDS011;39616;48.872;9.390;2023-04-21T08:14:13;12.00;;;7.60;;
53718;SDS011;39616;48.872;9.390;2023-04-21T08:16:43;12.80;;;8.32;;
53718;SDS011;39616;48.872;9.390;2023-04-21T08:19:14;9.13;;;6.43;;
53718;SDS011;39616;48.872;9.390;2023-04-21T08:21:44;9.32;;;5.88;;
53718;SDS011;39616;48.872;9.390;2023-04-21T08:24:15;8.77;;;5.97;;
53718;SDS011;39616;48.872;9.390;2023-04-21T08:26:45;8.00;;;5.55;;
53718;SDS011;39616;48.872;9.390;2023-04-21T08:29:16;6.78;;;4.18;;
53718;SDS011;39616;48.872;9.390;2023-04-21T08:31:46;7.82;;;4.80;;
53718;SDS011;39616;48.872;9.390;2023-04-21T08:34:16;7.03;;;5.30;;
53718;SDS011;39616;48.872;9.390;2023-04-21T08:36:48;6.95;;;4.25;;
53718;SDS011;39616;48.872;9.390;2023-04-21T08:39:19;7.28;;;4.13;;
53718;SDS011;39616;48.872;9.390;2023-04-21T08:41:49;7.75;;;4.63;;
53718;SDS011;39616;48.872;9.390;2023-04-21T08:44:20;8.40;;;4.82;;
53718;SDS011;39616;48.872;9.390;2023-04-21T08:46:50;6.57;;;3.88;;
53718;SDS011;39616;48.872;9.390;2023-04-21T08:49:20;4.38;;;3.10;;
53718;SDS011;39616;48.872;9.390;2023-04-21T08:51:52;4.93;;;3.70;;
53718;SDS011;39616;48.872;9.390;2023-04-21T08:54:22;4.70;;;3.50;;
53718;SDS011;39616;48.872;9.390;2023-04-21T08:56:52;4.28;;;3.35;;
53718;SDS011;39616;48.872;9.390;2023-04-21T08:59:22;4.90;;;3.58;;
53718;SDS011;39616;48.872;9.390;2023-04-21T09:02:09;4.45;;;3.05;;
53718;SDS011;39616;48.872;9.390;2023-04-21T09:04:42;5.13;;;3.70;;
53718;SDS011;39616;48.872;9.390;2023-04-21T09:07:32;5.03;;;3.25;;
53718;SDS011;39616;48.872;9.390;2023-04-21T09:10:05;5.57;;;3.60;;
53718;SDS011;39616;48.872;9.390;2023-04-21T09:12:37;3.67;;;2.67;;
53718;SDS011;39616;48.872;9.390;2023-04-21T09:15:09;6.07;;;4.20;;
53718;SDS011;39616;48.872;9.390;2023-04-21T09:17:43;4.78;;;3.25;;
53718;SDS011;39616;48.872;9.390;2023-04-21T09:20:15;4.53;;;3.67;;
53718;SDS011;39616;48.872;9.390;2023-04-21T09:22:48;5.88;;;3.70;;
53718;SDS011;39616;48.872;9.390;2023-04-21T09:25:22;6.75;;;3.28;;
53718;SDS011;39616;48.872;9.390;2023-04-21T09:27:52;5.40;;;3.53;;
53718;SDS011;39616;48.872;9.390;2023-04-21T09:30:23;4.57;;;3.35;;
53718;SDS011;39616;48.872;9.390;2023-04-21T09:32:56;5.97;;;3.78;;
53718;SDS011;39616;48.872;9.390;2023-04-21T09:35:34;9.50;;;4.43;;
53718;SDS011;39616;48.872;9.390;2023-04-21T09:38:09;7.05;;;4.55;;
53718;SDS011;39616;48.872;9.390;2023-04-21T09:40:40;5.87;;;4.13;;
53718;SDS011;39616;48.872;9.390;2023-04-21T09:43:11;7.63;;;4.85;;
53718;SDS011;39616;48.872;9.390;2023-04-21T09:45:41;9.77;;;5.22;;
53718;SDS011;39616;48.872;9.390;2023-04-21T09:48:11;7.50;;;4.63;;
53718;SDS011;39616;48.872;9.390;2023-04-21T09:50:46;7.50;;;5.00;;
53718;SDS011;39616;48.872;9.390;2023-04-21T09:53:16;8.35;;;4.75;;
53718;SDS011;39616;48.872;9.390;2023-04-21T09:55:53;7.88;;;4.25;;
53718;SDS011;39616;48.872;9.390;2023-04-21T09:58:27;8.60;;;4.95;;
53718;SDS011;39616;48.872;9.390;2023-04-21T10:01:06;8.15;;;4.93;;
53718;SDS011;39616;48.872;9.390;2023-04-21T10:03:37;8.32;;;5.32;;
53718;SDS011;39616;48.872;9.390;2023-04-21T10:06:09;7.40;;;4.95;;
53718;SDS011;39616;48.872;9.390;2023-04-21T10:08:41;8.25;;;4.93;;
53718;SDS011;39616;48.872;9.390;2023-04-21T10:11:12;8.00;;;5.07;;
53718;SDS011;39616;48.872;9.390;2023-04-21T10:13:43;7.32;;;5.05;;
53718;SDS011;39616;48.872;9.390;2023-04-21T10:16:15;6.80;;;4.60;;
53718;SDS011;39616;48.872;9.390;2023-04-21T10:18:46;8.35;;;5.43;;
53718;SDS011;39616;48.872;9.390;2023-04-21T10:21:17;8.15;;;4.90;;
53718;SDS011;39616;48.872;9.390;2023-04-21T10:23:51;6.57;;;4.75;;
53718;SDS011;39616;48.872;9.390;2023-04-21T10:26:23;7.43;;;4.43;;
53718;SDS011;39616;48.872;9.390;2023-04-21T10:28:59;8.30;;;4.90;;
53718;SDS011;39616;48.872;9.390;2023-04-21T10:34:13;9.80;;;5.10;;
53718;SDS011;39616;48.872;9.390;2023-04-21T10:39:34;5.50;;;4.30;;
53718;SDS011;39616;48.872;9.390;2023-04-21T10:42:26;7.30;;;4.80;;
53718;SDS011;39616;48.872;9.390;2023-04-21T10:47:29;6.40;;;4.57;;
53718;SDS011;39616;48.872;9.390;2023-04-21T10:50:27;5.57;;;3.85;;
53718;SDS011;39616;48.872;9.390;2023-04-21T10:53:06;6.15;;;3.40;;
53718;SDS011;39616;48.872;9.390;2023-04-21T10:55:39;5.15;;;3.80;;
53718;SDS011;39616;48.872;9.390;2023-04-21T10:58:14;4.32;;;3.45;;
53718;SDS011;39616;48.872;9.390;2023-04-21T11:00:45;4.63;;;3.53;;
53718;SDS011;39616;48.872;9.390;2023-04-21T11:03:16;5.10;;;3.72;;
53718;SDS011;39616;48.872;9.390;2023-04-21T11:05:46;8.40;;;3.63;;
53718;SDS011;39616;48.872;9.390;2023-04-21T11:08:17;6.18;;;3.90;;
53718;SDS011;39616;48.872;9.390;2023-04-21T11:10:53;5.15;;;3.53;;
53718;SDS011;39616;48.872;9.390;2023-04-21T11:13:25;5.63;;;3.28;;
53718;SDS011;39616;48.872;9.390;2023-04-21T11:16:04;5.15;;;3.55;;
53718;SDS011;39616;48.872;9.390;2023-04-21T11:18:42;5.90;;;3.75;;
53718;SDS011;39616;48.872;9.390;2023-04-21T11:21:14;4.03;;;3.58;;
53718;SDS011;39616;48.872;9.390;2023-04-21T11:23:50;5.78;;;4.22;;
53718;SDS011;39616;48.872;9.390;2023-04-21T11:26:31;4.38;;;3.28;;
53718;SDS011;39616;48.872;9.390;2023-04-21T11:29:03;5.45;;;3.75;;
53718;SDS011;39616;48.872;9.390;2023-04-21T11:31:37;5.10;;;4.20;;
53718;SDS011;39616;48.872;9.390;2023-04-21T11:34:09;3.78;;;3.22;;
53718;SDS011;39616;48.872;9.390;2023-04-21T11:36:40;7.63;;;4.13;;
53718;SDS011;39616;48.872;9.390;2023-04-21T11:39:14;4.05;;;3.38;;
53718;SDS011;39616;48.872;9.390;2023-04-21T11:41:49;7.40;;;3.47;;
53718;SDS011;39616;48.872;9.390;2023-04-21T11:44:34;6.53;;;3.40;;
53718;SDS011;39616;48.872;9.390;2023-04-21T11:47:12;5.53;;;3.55;;
53718;SDS011;39616;48.872;9.390;2023-04-21T11:49:46;4.85;;;3.25;;
53718;SDS011;39616;48.872;9.390;2023-04-21T11:54:55;4.77;;;2.93;;
53718;SDS011;39616;48.872;9.390;2023-04-21T11:57:28;5.47;;;3.80;;
53718;SDS011;39616;48.872;9.390;2023-04-21T12:00:01;6.03;;;3.88;;
53718;SDS011;39616;48.872;9.390;2023-04-21T12:02:35;4.43;;;3.55;;
53718;SDS011;39616;48.872;9.390;2023-04-21T12:05:06;4.28;;;3.25;;
53718;SDS011;39616;48.872;9.390;2023-04-21T12:07:39;6.93;;;4.18;;
53718;SDS011;39616;48.872;9.390;2023-04-21T12:10:12;5.22;;;3.13;;
53718;SDS011;39616;48.872;9.390;2023-04-21T12:12:45;4.97;;;3.53;;
53718;SDS011;39616;48.872;9.390;2023-04-21T12:15:17;5.53;;;3.55;;
53718;SDS011;39616;48.872;9.390;2023-04-21T12:17:49;5.60;;;3.88;;
53718;SDS011;39616;48.872;9.390;2023-04-21T12:20:22;4.75;;;3.72;;
53718;SDS011;39616;48.872;9.390;2023-04-21T12:22:54;4.07;;;3.00;;
53718;SDS011;39616;48.872;9.390;2023-04-21T12:25:25;4.13;;;2.95;;
53718;SDS011;39616;48.872;9.390;2023-04-21T12:27:58;3.00;;;2.47;;
53718;SDS011;39616;48.872;9.390;2023-04-21T12:30:29;4.47;;;3.17;;
53718;SDS011;39616;48.872;9.390;2023-04-21T12:32:59;7.75;;;3.97;;
53718;SDS011;39616;48.872;9.390;2023-04-21T12:35:29;4.53;;;3.15;;
53718;SDS011;39616;48.872;9.390;2023-04-21T12:38:02;4.57;;;3.15;;
53718;SDS011;39616;48.872;9.390;2023-04-21T12:40:32;5.68;;;3.00;;
53718;SDS011;39616;48.872;9.390;2023-04-21T12:43:03;3.47;;;2.75;;
53718;SDS011;39616;48.872;9.390;2023-04-21T12:45:33;3.97;;;2.58;;
53718;SDS011;39616;48.872;9.390;2023-04-21T12:48:04;4.03;;;3.30;;
53718;SDS011;39616;48.872;9.390;2023-04-21T12:50:35;5.32;;;3.08;;
53718;SDS011;39616;48.872;9.390;2023-04-21T12:53:06;4.93;;;3.13;;
53718;SDS011;39616;48.872;9.390;2023-04-21T12:55:36;4.28;;;3.05;;
53718;SDS011;39616;48.872;9.390;2023-04-21T12:58:07;5.90;;;4.10;;
53718;SDS011;39616;48.872;9.390;2023-04-21T13:00:37;4.75;;;3.17;;
53718;SDS011;39616;48.872;9.390;2023-04-21T13:03:07;5.43;;;3.47;;
53718;SDS011;39616;48.872;9.390;2023-04-21T13:05:38;4.75;;;2.88;;
53718;SDS011;39616;48.872;9.390;2023-04-21T13:08:08;3.85;;;3.28;;
53718;SDS011;39616;48.872;9.390;2023-04-21T13:10:38;3.80;;;3.33;;
53718;SDS011;39616;48.872;9.390;2023-04-21T13:13:09;5.32;;;3.55;;
53718;SDS011;39616;48.872;9.390;2023-04-21T13:15:39;3.40;;;3.10;;
53718;SDS011;39616;48.872;9.390;2023-04-21T13:18:09;4.88;;;3.85;;
53718;SDS011;39616;48.872;9.390;2023-04-21T13:20:40;6.70;;;3.38;;
53718;SDS011;39616;48.872;9.390;2023-04-21T13:23:10;6.55;;;3.40;;
53718;SDS011;39616;48.872;9.390;2023-04-21T13:25:43;4.18;;;2.97;;
53718;SDS011;39616;48.872;9.390;2023-04-21T13:28:16;5.63;;;3.05;;
53718;SDS011;39616;48.872;9.390;2023-04-21T13:30:47;3.58;;;3.28;;
53718;SDS011;39616;48.872;9.390;2023-04-21T13:33:21;5.57;;;4.07;;
53718;SDS011;39616;48.872;9.390;2023-04-21T13:35:51;3.95;;;3.40;;
53718;SDS011;39616;48.872;9.390;2023-04-21T13:38:22;5.00;;;2.85;;
53718;SDS011;39616;48.872;9.390;2023-04-21T13:40:52;4.88;;;2.97;;
53718;SDS011;39616;48.872;9.390;2023-04-21T13:43:23;5.38;;;3.13;;
53718;SDS011;39616;48.872;9.390;2023-04-21T13:45:53;4.10;;;3.20;;
53718;SDS011;39616;48.872;9.390;2023-04-21T13:48:24;3.50;;;2.33;;
53718;SDS011;39616;48.872;9.390;2023-04-21T13:50:55;2.78;;;2.30;;
53718;SDS011;39616;48.872;9.390;2023-04-21T13:53:25;6.35;;;2.63;;
53718;SDS011;39616;48.872;9.390;2023-04-21T13:55:56;4.28;;;2.95;;
53718;SDS011;39616;48.872;9.390;2023-04-21T13:58:28;3.08;;;2.38;;
53718;SDS011;39616;48.872;9.390;2023-04-21T14:00:59;3.10;;;2.70;;
53718;SDS011;39616;48.872;9.390;2023-04-21T14:03:30;3.75;;;2.47;;
53718;SDS011;39616;48.872;9.390;2023-04-21T14:06:00;4.38;;;2.65;;
53718;SDS011;39616;48.872;9.390;2023-04-21T14:08:30;4.13;;;2.33;;
53718;SDS011;39616;48.872;9.390;2023-04-21T14:11:01;3.53;;;2.40;;
53718;SDS011;39616;48.872;9.390;2023-04-21T14:13:32;2.20;;;2.00;;
53718;SDS011;39616;48.872;9.390;2023-04-21T14:16:03;2.78;;;1.95;;
53718;SDS011;39616;48.872;9.390;2023-04-21T14:18:33;3.00;;;2.20;;
53718;SDS011;39616;48.872;9.390;2023-04-21T14:21:03;2.50;;;2.00;;
53718;SDS011;39616;48.872;9.390;2023-04-21T14:23:34;2.92;;;1.80;;
53718;SDS011;39616;48.872;9.390;2023-04-21T14:26:05;1.95;;;1.80;;
53718;SDS011;39616;48.872;9.390;2023-04-21T14:28:35;4.18;;;2.03;;
53718;SDS011;39616;48.872;9.390;2023-04-21T14:31:06;2.30;;;2.10;;
53718;SDS011;39616;48.872;9.390;2023-04-21T14:33:36;2.38;;;1.88;;
53718;SDS011;39616;48.872;9.390;2023-04-21T14:36:06;2.55;;;1.98;;
53718;SDS011;39616;48.872;9.390;2023-04-21T14:38:37;2.80;;;2.00;;
53718;SDS011;39616;48.872;9.390;2023-04-21T14:41:07;3.40;;;1.55;;
53718;SDS011;39616;48.872;9.390;2023-04-21T14:43:38;1.63;;;1.52;;
53718;SDS011;39616;48.872;9.390;2023-04-21T14:46:08;2.13;;;1.27;;
53718;SDS011;39616;48.872;9.390;2023-04-21T14:48:39;1.20;;;1.10;;
53718;SDS011;39616;48.872;9.390;2023-04-21T14:51:11;2.03;;;0.98;;
53718;SDS011;39616;48.872;9.390;2023-04-21T14:53:41;1.17;;;0.90;;
53718;SDS011;39616;48.872;9.390;2023-04-21T14:56:11;1.38;;;1.00;;
53718;SDS011;39616;48.872;9.390;2023-04-21T14:58:42;1.67;;;0.90;;
53718;SDS011;39616;48.872;9.390;2023-04-21T15:01:12;0.93;;;0.82;;
53718;SDS011;39616;48.872;9.390;2023-04-21T15:03:43;1.38;;;0.90;;
53718;SDS011;39616;48.872;9.390;2023-04-21T15:06:13;2.20;;;1.02;;
53718;SDS011;39616;48.872;9.390;2023-04-21T15:08:45;0.80;;;0.80;;
53718;SDS011;39616;48.872;9.390;2023-04-21T15:11:15;0.80;;;0.80;;